Dagus Mines, PA

4:38 AM EST on March 06, 2015 (GMT -0500)
Du Bois-Jefferson County | Change Station
CLOSE
Current Station
Airport
Location: Du Bois,
Elevation: 1818 ft
Nearby Weather Stations

Elev 1818 ft 41.18 °N, 78.90 °W | Updated 45 minutes ago

Partly Cloudy
Partly Cloudy
-2 °F
Feels Like -14 °F
N
6
Wind Variable Wind from West

Today
High -- | Low -- °F
--% Chance of Precip.
Yesterday
High -- | Low -- °F
Precip. -- in
6:41 AM 6:10 PM
Full, 100% visible
Pressure 30.51 in
Visibility 10.0 miles
Clouds Clear
Windchill -14 °F
Dew Point -6 °F
Humidity 83%
Rainfall 0.00 in
Snow Depth Not available.
UV 0 out of 12
Pollen .50 out of 12
Air Quality Not available.
Flu Activity Not available.
METAR KDUJ 060853Z AUTO 26005KT 10SM CLR M19/M21 A3038 RMK AO2 SLP329 I3000 T11891211 51002

More Conditions Fewer Conditions

Pressure 30.51 in
Visibility 10.0 miles
Clouds Clear
Windchill -14 °F
Dew Point -6 °F
Humidity 83%
Rainfall 0.00 in
Snow Depth Not available.
UV 0 out of 12
Pollen .50 out of 12
Air Quality Not available.
Flu Activity Not available.
METAR KDUJ 060853Z AUTO 26005KT 10SM CLR M19/M21 A3038 RMK AO2 SLP329 I3000 T11891211 51002

More Conditions Fewer Conditions

10-Day Weather Forecast

Almanac

Astronomy

Mar. 06, 2015 Rise Set
Actual Time
Civil Twilight
Nautical Twilight
Astronomical Twilight
Moon
Length of Visible Light
Length of Day
Tomorrow will be .
, % of the Moon is Illuminated

Today's Extremes

State Highs State Lows

Community

WunderPhotos

Upload Photos

1,803,214 photos uploaded!

WunderBlogs® & News

Nearby

Air Quality

  Air Quality AQ Index Pollutant
Not available.

Snow Depth

Station Depth Elevation

Earthquake Activity

City Distance Mag. Time & Date
Minimum magnitude displayed is 2.5.

Coastal Water Temperatures

Place Temperature

Nearby Weather Stations